PWSweather.com
Personal Weather Stations
Station Observations
RIORANCHO
Corrales Heights, Rio Rancho, NM 87124

Corrales HeightsRio Rancho, NM 87124

Lat: 35.241928, Lon: -106.647095

Elevation: 5297

Station Type: Davis Vantage Pro 2 Plus

http://www.weatherriorancho.com

High Low Average
Temperature 65.2°F18.4°C 30.1°F-1.1°C 47.4°F8.6°C
Dew Point 21.8°F-5.7°C 11.3°F-11.5°C 17.0°F-8.3°C
Winds 4.6 mph 7.4 kmh Calm Calm Calm SECalm SE
Wind Gusts 12.7 mph20.4 kmh -- 2.0 mph3.2 kmh
Humidity 49% 19% 31%
Pressure 30.32 in1026.8 mb 30.13 in1020.3 mb -
Precipitation 0.00 in0.0 mm - -
Hour Temp Dew Point Humidity Winds Wind Gusts Pressure Precip Precip Rate Daily Precip Total
12:00 AM 43.5°F6.4°C 12.5°F-10.8°C 28% 1.2 mph W1.9 kmh W 5.8 mph9.3 kmh 30.33 in1027.1 mb - 0.00 in0.0 mm 0.00 in0.0 mm
12:10 AM 43.5°F6.4°C 12.5°F-10.8°C 28% 1.2 mph WSW1.9 kmh WSW 3.5 mph5.6 kmh 30.33 in1027.1 mb - 0.00 in0.0 mm 0.00 in0.0 mm
12:20 AM 43.3°F6.3°C 13.1°F-10.5°C 29% 1.2 mph W1.9 kmh W 3.5 mph5.6 kmh 30.33 in1027.1 mb - 0.00 in0.0 mm 0.00 in0.0 mm
12:30 AM 43.0°F6.1°C 13.6°F-10.2°C 30% 2.3 mph W3.7 kmh W 9.2 mph14.8 kmh 30.33 in1027.1 mb - 0.00 in0.0 mm 0.00 in0.0 mm
12:40 AM 42.8°F6.0°C 13.5°F-10.3°C 30% 2.3 mph W3.7 kmh W 3.5 mph5.6 kmh 30.33 in1027.1 mb - 0.00 in0.0 mm 0.00 in0.0 mm
12:50 AM 42.6°F5.9°C 13.3°F-10.4°C 30% 1.2 mph W1.9 kmh W 3.5 mph5.6 kmh 30.32 in1026.8 mb - 0.00 in0.0 mm 0.00 in0.0 mm
01:00 AM 42.3°F5.7°C 13.8°F-10.1°C 31% 1.2 mph W1.9 kmh W 3.5 mph5.6 kmh 30.32 in1026.8 mb - 0.00 in0.0 mm 0.00 in0.0 mm
01:10 AM 42.4°F5.8°C 13.9°F-10.1°C 31% 3.5 mph WNW5.6 kmh WNW 4.6 mph7.4 kmh 30.32 in1026.8 mb - 0.00 in0.0 mm 0.00 in0.0 mm
01:20 AM 42.2°F5.7°C 13.7°F-10.2°C 31% Calm Calm 3.5 mph5.6 kmh 30.32 in1026.8 mb - 0.00 in0.0 mm 0.00 in0.0 mm
01:30 AM 41.6°F5.3°C 13.2°F-10.4°C 31% Calm Calm -- 30.31 in1026.4 mb - 0.00 in0.0 mm 0.00 in0.0 mm
01:40 AM 40.8°F4.9°C 13.2°F-10.4°C 32% 2.3 mph NW3.7 kmh NW 5.8 mph9.3 kmh 30.32 in1026.8 mb - 0.00 in0.0 mm 0.00 in0.0 mm
01:50 AM 40.9°F4.9°C 13.3°F-10.4°C 32% 1.2 mph NW1.9 kmh NW 4.6 mph7.4 kmh 30.31 in1026.4 mb - 0.00 in0.0 mm 0.00 in0.0 mm
02:00 AM 40.2°F4.6°C 12.6°F-10.8°C 32% Calm Calm 1.2 mph1.9 kmh 30.32 in1026.8 mb - 0.00 in0.0 mm 0.00 in0.0 mm
02:10 AM 39.2°F4.0°C 12.5°F-10.8°C 33% Calm Calm 1.2 mph1.9 kmh 30.31 in1026.4 mb - 0.00 in0.0 mm 0.00 in0.0 mm
02:20 AM 38.4°F3.6°C 11.7°F-11.3°C 33% Calm Calm -- 30.32 in1026.8 mb - 0.00 in0.0 mm 0.00 in0.0 mm
02:30 AM 38.0°F3.3°C 12.0°F-11.1°C 34% Calm Calm -- 30.32 in1026.8 mb - 0.00 in0.0 mm 0.00 in0.0 mm
02:40 AM 37.5°F3.1°C 11.6°F-11.3°C 34% Calm Calm 1.2 mph1.9 kmh 30.32 in1026.8 mb - 0.00 in0.0 mm 0.00 in0.0 mm
02:50 AM 37.0°F2.8°C 11.8°F-11.2°C 35% Calm Calm 1.2 mph1.9 kmh 30.32 in1026.8 mb - 0.00 in0.0 mm 0.00 in0.0 mm
03:00 AM 36.7°F2.6°C 11.6°F-11.3°C 35% Calm Calm 1.2 mph1.9 kmh 30.32 in1026.8 mb - 0.00 in0.0 mm 0.00 in0.0 mm
03:10 AM 36.4°F2.4°C 11.3°F-11.5°C 35% Calm Calm -- 30.31 in1026.4 mb - 0.00 in0.0 mm 0.00 in0.0 mm
03:20 AM 36.1°F2.3°C 11.7°F-11.3°C 36% Calm Calm -- 30.31 in1026.4 mb - 0.00 in0.0 mm 0.00 in0.0 mm
03:30 AM 35.8°F2.1°C 11.4°F-11.4°C 36% Calm Calm 1.2 mph1.9 kmh 30.32 in1026.8 mb - 0.00 in0.0 mm 0.00 in0.0 mm
03:40 AM 35.5°F1.9°C 11.8°F-11.2°C 37% Calm Calm 1.2 mph1.9 kmh 30.31 in1026.4 mb - 0.00 in0.0 mm 0.00 in0.0 mm
03:50 AM 35.9°F2.2°C 12.1°F-11.1°C 37% 1.2 mph N1.9 kmh N 2.3 mph3.7 kmh 30.31 in1026.4 mb - 0.00 in0.0 mm 0.00 in0.0 mm
04:00 AM 36.1°F2.3°C 12.3°F-10.9°C 37% Calm Calm -- 30.31 in1026.4 mb - 0.00 in0.0 mm 0.00 in0.0 mm
04:10 AM 36.9°F2.7°C 13.0°F-10.6°C 37% Calm Calm -- 30.30 in1026.1 mb - 0.00 in0.0 mm 0.00 in0.0 mm
04:20 AM 38.6°F3.7°C 13.3°F-10.4°C 35% 2.3 mph NNE3.7 kmh NNE 5.8 mph9.3 kmh 30.30 in1026.1 mb - 0.00 in0.0 mm 0.00 in0.0 mm
04:30 AM 37.3°F2.9°C 12.1°F-11.1°C 35% Calm Calm 1.2 mph1.9 kmh 30.30 in1026.1 mb - 0.00 in0.0 mm 0.00 in0.0 mm
04:40 AM 37.0°F2.8°C 13.1°F-10.5°C 37% 1.2 mph NNE1.9 kmh NNE 2.3 mph3.7 kmh 30.30 in1026.1 mb - 0.00 in0.0 mm 0.00 in0.0 mm
04:50 AM 37.1°F2.8°C 13.2°F-10.4°C 37% Calm Calm -- 30.30 in1026.1 mb - 0.00 in0.0 mm 0.00 in0.0 mm
05:00 AM 36.4°F2.4°C 13.2°F-10.4°C 38% Calm Calm -- 30.30 in1026.1 mb - 0.00 in0.0 mm 0.00 in0.0 mm
05:10 AM 35.9°F2.2°C 12.7°F-10.7°C 38% Calm Calm -- 30.30 in1026.1 mb - 0.00 in0.0 mm 0.00 in0.0 mm
05:20 AM 35.5°F1.9°C 12.3°F-10.9°C 38% Calm Calm -- 30.30 in1026.1 mb - 0.00 in0.0 mm 0.00 in0.0 mm
05:30 AM 34.8°F1.6°C 11.7°F-11.3°C 38% Calm Calm -- 30.30 in1026.1 mb - 0.00 in0.0 mm 0.00 in0.0 mm
05:40 AM 33.9°F1.1°C 12.1°F-11.1°C 40% Calm Calm -- 30.29 in1025.7 mb - 0.00 in0.0 mm 0.00 in0.0 mm
05:50 AM 33.0°F0.6°C 11.8°F-11.2°C 41% Calm Calm -- 30.30 in1026.1 mb - 0.00 in0.0 mm 0.00 in0.0 mm
06:00 AM 32.5°F0.3°C 11.9°F-11.2°C 42% Calm Calm -- 30.30 in1026.1 mb - 0.00 in0.0 mm 0.00 in0.0 mm
06:10 AM 32.1°F0.1°C 12.1°F-11.1°C 43% Calm Calm -- 30.30 in1026.1 mb - 0.00 in0.0 mm 0.00 in0.0 mm
06:20 AM 32.2°F0.1°C 12.2°F-11.0°C 43% Calm Calm -- 30.30 in1026.1 mb - 0.00 in0.0 mm 0.00 in0.0 mm
06:30 AM 32.0°F0.0°C 12.0°F-11.1°C 43% Calm Calm -- 30.30 in1026.1 mb - 0.00 in0.0 mm 0.00 in0.0 mm
06:40 AM 32.0°F0.0°C 12.5°F-10.8°C 44% Calm Calm 1.2 mph1.9 kmh 30.29 in1025.7 mb - 0.00 in0.0 mm 0.00 in0.0 mm
06:50 AM 32.2°F0.1°C 12.7°F-10.7°C 44% 1.2 mph NNE1.9 kmh NNE 2.3 mph3.7 kmh 30.30 in1026.1 mb - 0.00 in0.0 mm 0.00 in0.0 mm
07:00 AM 32.4°F0.2°C 12.9°F-10.6°C 44% Calm Calm -- 30.30 in1026.1 mb - 0.00 in0.0 mm 0.00 in0.0 mm
07:10 AM 32.4°F0.2°C 12.9°F-10.6°C 44% Calm Calm -- 30.30 in1026.1 mb - 0.00 in0.0 mm 0.00 in0.0 mm
07:20 AM 32.0°F0.0°C 12.5°F-10.8°C 44% Calm Calm -- 30.30 in1026.1 mb - 0.00 in0.0 mm 0.00 in0.0 mm
07:30 AM 31.7°F-0.2°C 12.2°F-11.0°C 44% Calm Calm -- 30.30 in1026.1 mb - 0.00 in0.0 mm 0.00 in0.0 mm
07:40 AM 31.2°F-0.4°C 12.3°F-10.9°C 45% Calm Calm -- 30.30 in1026.1 mb - 0.00 in0.0 mm 0.00 in0.0 mm
07:50 AM 30.9°F-0.6°C 12.5°F-10.8°C 46% Calm Calm -- 30.30 in1026.1 mb - 0.00 in0.0 mm 0.00 in0.0 mm
08:00 AM 30.4°F-0.9°C 12.6°F-10.8°C 47% Calm Calm -- 30.30 in1026.1 mb - 0.00 in0.0 mm 0.00 in0.0 mm
08:10 AM 30.3°F-0.9°C 12.9°F-10.6°C 48% Calm Calm -- 30.30 in1026.1 mb - 0.00 in0.0 mm 0.00 in0.0 mm
08:20 AM 30.2°F-1.0°C 12.4°F-10.9°C 47% Calm Calm -- 30.30 in1026.1 mb - 0.00 in0.0 mm 0.00 in0.0 mm
08:30 AM 30.1°F-1.1°C 13.2°F-10.4°C 49% Calm Calm -- 30.30 in1026.1 mb - 0.00 in0.0 mm 0.00 in0.0 mm
08:40 AM 30.6°F-0.8°C 13.6°F-10.2°C 49% Calm Calm -- 30.30 in1026.1 mb - 0.00 in0.0 mm 0.00 in0.0 mm
08:50 AM 32.4°F0.2°C 14.9°F-9.5°C 48% Calm Calm -- 30.30 in1026.1 mb - 0.00 in0.0 mm 0.00 in0.0 mm
09:00 AM 34.4°F1.3°C 15.2°F-9.3°C 45% Calm Calm -- 30.30 in1026.1 mb - 0.00 in0.0 mm 0.00 in0.0 mm
09:10 AM 36.2°F2.3°C 14.8°F-9.6°C 41% Calm Calm -- 30.30 in1026.1 mb - 0.00 in0.0 mm 0.00 in0.0 mm
09:20 AM 37.7°F3.2°C 15.5°F-9.2°C 40% Calm Calm -- 30.30 in1026.1 mb - 0.00 in0.0 mm 0.00 in0.0 mm
09:30 AM 38.8°F3.8°C 14.7°F-9.6°C 37% Calm Calm -- 30.30 in1026.1 mb - 0.00 in0.0 mm 0.00 in0.0 mm
09:40 AM 40.1°F4.5°C 15.2°F-9.3°C 36% Calm Calm -- 30.30 in1026.1 mb - 0.00 in0.0 mm 0.00 in0.0 mm
09:50 AM 40.9°F4.9°C 14.6°F-9.7°C 34% Calm Calm -- 30.30 in1026.1 mb - 0.00 in0.0 mm 0.00 in0.0 mm
10:00 AM 41.6°F5.3°C 14.6°F-9.7°C 33% Calm Calm -- 30.30 in1026.1 mb - 0.00 in0.0 mm 0.00 in0.0 mm
10:10 AM 42.5°F5.8°C 14.7°F-9.6°C 32% Calm Calm -- 30.30 in1026.1 mb - 0.00 in0.0 mm 0.00 in0.0 mm
10:20 AM 43.3°F6.3°C 15.4°F-9.2°C 32% Calm Calm -- 30.30 in1026.1 mb - 0.00 in0.0 mm 0.00 in0.0 mm
10:30 AM 44.2°F6.8°C 15.5°F-9.2°C 31% Calm Calm -- 30.30 in1026.1 mb - 0.00 in0.0 mm 0.00 in0.0 mm
10:40 AM 45.4°F7.4°C 16.5°F-8.6°C 31% Calm Calm -- 30.30 in1026.1 mb - 0.00 in0.0 mm 0.00 in0.0 mm
10:50 AM 45.8°F7.7°C 16.1°F-8.8°C 30% Calm Calm -- 30.30 in1026.1 mb - 0.00 in0.0 mm 0.00 in0.0 mm
11:00 AM 47.0°F8.3°C 17.1°F-8.3°C 30% Calm Calm -- 30.30 in1026.1 mb - 0.00 in0.0 mm 0.00 in0.0 mm
11:10 AM 48.7°F9.3°C 17.0°F-8.3°C 28% Calm Calm -- 30.30 in1026.1 mb - 0.00 in0.0 mm 0.00 in0.0 mm
11:20 AM 49.7°F9.8°C 17.9°F-7.8°C 28% Calm Calm -- 30.30 in1026.1 mb - 0.00 in0.0 mm 0.00 in0.0 mm
11:30 AM 50.5°F10.3°C 17.8°F-7.9°C 27% Calm Calm -- 30.30 in1026.1 mb - 0.00 in0.0 mm 0.00 in0.0 mm
11:40 AM 51.0°F10.6°C 17.3°F-8.2°C 26% Calm Calm -- 30.30 in1026.1 mb - 0.00 in0.0 mm 0.00 in0.0 mm
11:50 AM 51.5°F10.8°C 17.7°F-7.9°C 26% Calm Calm -- 30.29 in1025.7 mb - 0.00 in0.0 mm 0.00 in0.0 mm
12:00 PM 51.2°F10.7°C 18.3°F-7.6°C 27% Calm Calm 1.2 mph1.9 kmh 30.29 in1025.7 mb - 0.00 in0.0 mm 0.00 in0.0 mm
12:10 PM 51.2°F10.7°C 18.3°F-7.6°C 27% Calm Calm -- 30.28 in1025.4 mb - 0.00 in0.0 mm 0.00 in0.0 mm
12:20 PM 52.0°F11.1°C 18.1°F-7.7°C 26% Calm Calm -- 30.28 in1025.4 mb - 0.00 in0.0 mm 0.00 in0.0 mm
12:30 PM 52.5°F11.4°C 17.6°F-8.0°C 25% Calm Calm 2.3 mph3.7 kmh 30.27 in1025.1 mb - 0.00 in0.0 mm 0.00 in0.0 mm
12:40 PM 53.9°F12.2°C 18.8°F-7.3°C 25% 1.2 mph SE1.9 kmh SE 3.5 mph5.6 kmh 30.27 in1025.1 mb - 0.00 in0.0 mm 0.00 in0.0 mm
12:50 PM 54.1°F12.3°C 18.0°F-7.8°C 24% Calm Calm 1.2 mph1.9 kmh 30.26 in1024.7 mb - 0.00 in0.0 mm 0.00 in0.0 mm
01:00 PM 55.3°F12.9°C 19.1°F-7.2°C 24% 1.2 mph SE1.9 kmh SE 1.2 mph1.9 kmh 30.25 in1024.4 mb - 0.00 in0.0 mm 0.00 in0.0 mm
01:10 PM 55.5°F13.1°C 19.2°F-7.1°C 24% 1.2 mph SE1.9 kmh SE 4.6 mph7.4 kmh 30.25 in1024.4 mb - 0.00 in0.0 mm 0.00 in0.0 mm
01:20 PM 56.3°F13.5°C 18.9°F-7.3°C 23% 1.2 mph SSE1.9 kmh SSE 4.6 mph7.4 kmh 30.24 in1024.0 mb - 0.00 in0.0 mm 0.00 in0.0 mm
01:30 PM 56.8°F13.8°C 19.3°F-7.1°C 23% 2.3 mph S3.7 kmh S 4.6 mph7.4 kmh 30.23 in1023.7 mb - 0.00 in0.0 mm 0.00 in0.0 mm
01:40 PM 57.4°F14.1°C 18.8°F-7.3°C 22% 2.3 mph SE3.7 kmh SE 5.8 mph9.3 kmh 30.23 in1023.7 mb - 0.00 in0.0 mm 0.00 in0.0 mm
01:50 PM 57.7°F14.3°C 19.1°F-7.2°C 22% 2.3 mph SE3.7 kmh SE 4.6 mph7.4 kmh 30.22 in1023.4 mb - 0.00 in0.0 mm 0.00 in0.0 mm
02:00 PM 58.3°F14.6°C 19.6°F-6.9°C 22% 2.3 mph SE3.7 kmh SE 3.5 mph5.6 kmh 30.21 in1023.0 mb - 0.00 in0.0 mm 0.00 in0.0 mm
02:10 PM 59.0°F15.0°C 20.2°F-6.6°C 22% 2.3 mph SE3.7 kmh SE 4.6 mph7.4 kmh 30.21 in1023.0 mb - 0.00 in0.0 mm 0.00 in0.0 mm
02:20 PM 59.1°F15.1°C 20.3°F-6.5°C 22% 1.2 mph SE1.9 kmh SE 4.6 mph7.4 kmh 30.20 in1022.7 mb - 0.00 in0.0 mm 0.00 in0.0 mm
02:30 PM 60.1°F15.6°C 20.0°F-6.7°C 21% 3.5 mph ESE5.6 kmh ESE 6.9 mph11.1 kmh 30.19 in1022.4 mb - 0.00 in0.0 mm 0.00 in0.0 mm
02:40 PM 60.5°F15.8°C 20.3°F-6.5°C 21% 1.2 mph SE1.9 kmh SE 2.3 mph3.7 kmh 30.19 in1022.4 mb - 0.00 in0.0 mm 0.00 in0.0 mm
02:50 PM 61.2°F16.2°C 19.7°F-6.8°C 20% 1.2 mph SE1.9 kmh SE 4.6 mph7.4 kmh 30.18 in1022.0 mb - 0.00 in0.0 mm 0.00 in0.0 mm
03:00 PM 61.8°F16.6°C 20.3°F-6.5°C 20% 1.2 mph SE1.9 kmh SE 1.2 mph1.9 kmh 30.18 in1022.0 mb - 0.00 in0.0 mm 0.00 in0.0 mm
03:10 PM 62.4°F16.9°C 20.8°F-6.2°C 20% 4.6 mph SE7.4 kmh SE 8.1 mph13.0 kmh 30.17 in1021.7 mb - 0.00 in0.0 mm 0.00 in0.0 mm
03:20 PM 62.7°F17.1°C 21.0°F-6.1°C 20% 1.2 mph ESE1.9 kmh ESE 3.5 mph5.6 kmh 30.17 in1021.7 mb - 0.00 in0.0 mm 0.00 in0.0 mm
03:30 PM 62.5°F16.9°C 20.8°F-6.2°C 20% 1.2 mph SE1.9 kmh SE 6.9 mph11.1 kmh 30.16 in1021.3 mb - 0.00 in0.0 mm 0.00 in0.0 mm
03:40 PM 63.4°F17.4°C 20.4°F-6.4°C 19% 2.3 mph ESE3.7 kmh ESE 10.4 mph16.7 kmh 30.16 in1021.3 mb - 0.00 in0.0 mm 0.00 in0.0 mm
03:50 PM 63.5°F17.5°C 20.4°F-6.4°C 19% Calm Calm 1.2 mph1.9 kmh 30.16 in1021.3 mb - 0.00 in0.0 mm 0.00 in0.0 mm
04:00 PM 64.0°F17.8°C 20.9°F-6.2°C 19% 1.2 mph SSE1.9 kmh SSE 6.9 mph11.1 kmh 30.15 in1021.0 mb - 0.00 in0.0 mm 0.00 in0.0 mm
04:10 PM 63.9°F17.7°C 20.8°F-6.2°C 19% 1.2 mph S1.9 kmh S 3.5 mph5.6 kmh 30.15 in1021.0 mb - 0.00 in0.0 mm 0.00 in0.0 mm
04:20 PM 63.6°F17.6°C 20.5°F-6.4°C 19% Calm Calm -- 30.15 in1021.0 mb - 0.00 in0.0 mm 0.00 in0.0 mm
04:30 PM 64.7°F18.2°C 21.5°F-5.8°C 19% Calm Calm -- 30.14 in1020.7 mb - 0.00 in0.0 mm 0.00 in0.0 mm
04:40 PM 65.2°F18.4°C 21.8°F-5.7°C 19% Calm Calm 4.6 mph7.4 kmh 30.14 in1020.7 mb - 0.00 in0.0 mm 0.00 in0.0 mm
04:50 PM 64.6°F18.1°C 21.4°F-5.9°C 19% 2.3 mph SW3.7 kmh SW 4.6 mph7.4 kmh 30.14 in1020.7 mb - 0.00 in0.0 mm 0.00 in0.0 mm
05:00 PM 63.4°F17.4°C 21.6°F-5.8°C 20% Calm Calm 3.5 mph5.6 kmh 30.14 in1020.7 mb - 0.00 in0.0 mm 0.00 in0.0 mm
05:10 PM 63.8°F17.7°C 20.7°F-6.3°C 19% 2.3 mph SSW3.7 kmh SSW 4.6 mph7.4 kmh 30.14 in1020.7 mb - 0.00 in0.0 mm 0.00 in0.0 mm
05:20 PM 63.5°F17.5°C 20.4°F-6.4°C 19% 3.5 mph SSE5.6 kmh SSE 6.9 mph11.1 kmh 30.13 in1020.3 mb - 0.00 in0.0 mm 0.00 in0.0 mm
05:30 PM 63.0°F17.2°C 21.2°F-6.0°C 20% 3.5 mph SW5.6 kmh SW 3.5 mph5.6 kmh 30.14 in1020.7 mb - 0.00 in0.0 mm 0.00 in0.0 mm
05:40 PM 62.6°F17.0°C 20.9°F-6.2°C 20% 2.3 mph SW3.7 kmh SW 3.5 mph5.6 kmh 30.14 in1020.7 mb - 0.00 in0.0 mm 0.00 in0.0 mm
05:50 PM 62.5°F16.9°C 20.8°F-6.2°C 20% Calm Calm -- 30.14 in1020.7 mb - 0.00 in0.0 mm 0.00 in0.0 mm
06:00 PM 62.2°F16.8°C 20.5°F-6.4°C 20% Calm Calm 3.5 mph5.6 kmh 30.14 in1020.7 mb - 0.00 in0.0 mm 0.00 in0.0 mm
06:10 PM 61.9°F16.6°C 20.3°F-6.5°C 20% Calm Calm 2.3 mph3.7 kmh 30.14 in1020.7 mb - 0.00 in0.0 mm 0.00 in0.0 mm
06:20 PM 61.6°F16.4°C 20.1°F-6.6°C 20% Calm Calm -- 30.14 in1020.7 mb - 0.00 in0.0 mm 0.00 in0.0 mm
06:30 PM 61.3°F16.3°C 19.8°F-6.8°C 20% Calm Calm 1.2 mph1.9 kmh 30.14 in1020.7 mb - 0.00 in0.0 mm 0.00 in0.0 mm
06:40 PM 60.5°F15.8°C 20.3°F-6.5°C 21% 1.2 mph W1.9 kmh W 3.5 mph5.6 kmh 30.14 in1020.7 mb - 0.00 in0.0 mm 0.00 in0.0 mm
06:50 PM 59.9°F15.5°C 19.8°F-6.8°C 21% Calm Calm -- 30.14 in1020.7 mb - 0.00 in0.0 mm 0.00 in0.0 mm
07:00 PM 59.2°F15.1°C 20.3°F-6.5°C 22% Calm Calm -- 30.14 in1020.7 mb - 0.00 in0.0 mm 0.00 in0.0 mm
07:10 PM 58.3°F14.6°C 20.6°F-6.3°C 23% Calm Calm 3.5 mph5.6 kmh 30.14 in1020.7 mb - 0.00 in0.0 mm 0.00 in0.0 mm
07:20 PM 57.3°F14.1°C 19.8°F-6.8°C 23% Calm Calm 3.5 mph5.6 kmh 30.14 in1020.7 mb - 0.00 in0.0 mm 0.00 in0.0 mm
07:30 PM 56.8°F13.8°C 20.3°F-6.5°C 24% Calm Calm 1.2 mph1.9 kmh 30.14 in1020.7 mb - 0.00 in0.0 mm 0.00 in0.0 mm
07:40 PM 56.3°F13.5°C 20.9°F-6.2°C 25% Calm Calm 1.2 mph1.9 kmh 30.15 in1021.0 mb - 0.00 in0.0 mm 0.00 in0.0 mm
07:50 PM 55.8°F13.2°C 20.5°F-6.4°C 25% Calm Calm -- 30.14 in1020.7 mb - 0.00 in0.0 mm 0.00 in0.0 mm
08:00 PM 55.1°F12.8°C 20.8°F-6.2°C 26% Calm Calm -- 30.15 in1021.0 mb - 0.00 in0.0 mm 0.00 in0.0 mm
08:10 PM 54.6°F12.6°C 20.3°F-6.5°C 26% Calm Calm -- 30.15 in1021.0 mb - 0.00 in0.0 mm 0.00 in0.0 mm
08:20 PM 54.0°F12.2°C 20.7°F-6.3°C 27% Calm Calm -- 30.14 in1020.7 mb - 0.00 in0.0 mm 0.00 in0.0 mm
08:30 PM 53.5°F11.9°C 20.3°F-6.5°C 27% Calm Calm -- 30.15 in1021.0 mb - 0.00 in0.0 mm 0.00 in0.0 mm
08:40 PM 52.7°F11.5°C 19.6°F-6.9°C 27% Calm Calm -- 30.15 in1021.0 mb - 0.00 in0.0 mm 0.00 in0.0 mm
08:50 PM 51.9°F11.1°C 19.8°F-6.8°C 28% Calm Calm -- 30.15 in1021.0 mb - 0.00 in0.0 mm 0.00 in0.0 mm
09:00 PM 51.4°F10.8°C 20.2°F-6.6°C 29% Calm Calm -- 30.15 in1021.0 mb - 0.00 in0.0 mm 0.00 in0.0 mm
09:10 PM 51.1°F10.6°C 19.9°F-6.7°C 29% Calm Calm -- 30.15 in1021.0 mb - 0.00 in0.0 mm 0.00 in0.0 mm
09:20 PM 50.8°F10.4°C 20.4°F-6.4°C 30% Calm Calm -- 30.16 in1021.3 mb - 0.00 in0.0 mm 0.00 in0.0 mm
09:30 PM 50.7°F10.4°C 20.4°F-6.4°C 30% Calm Calm -- 30.16 in1021.3 mb - 0.00 in0.0 mm 0.00 in0.0 mm
09:40 PM 50.3°F10.2°C 20.0°F-6.7°C 30% Calm Calm -- 30.16 in1021.3 mb - 0.00 in0.0 mm 0.00 in0.0 mm
09:50 PM 49.5°F9.7°C 20.1°F-6.6°C 31% Calm Calm -- 30.16 in1021.3 mb - 0.00 in0.0 mm 0.00 in0.0 mm
10:00 PM 49.0°F9.4°C 20.4°F-6.4°C 32% Calm Calm -- 30.16 in1021.3 mb - 0.00 in0.0 mm 0.00 in0.0 mm
10:10 PM 49.6°F9.8°C 20.2°F-6.6°C 31% Calm Calm -- 30.16 in1021.3 mb - 0.00 in0.0 mm 0.00 in0.0 mm
10:20 PM 49.1°F9.5°C 20.4°F-6.4°C 32% Calm Calm -- 30.16 in1021.3 mb - 0.00 in0.0 mm 0.00 in0.0 mm
10:30 PM 49.0°F9.4°C 20.4°F-6.4°C 32% Calm Calm -- 30.16 in1021.3 mb - 0.00 in0.0 mm 0.00 in0.0 mm
10:40 PM 48.6°F9.2°C 20.1°F-6.6°C 32% Calm Calm -- 30.16 in1021.3 mb - 0.00 in0.0 mm 0.00 in0.0 mm
10:50 PM 47.8°F8.8°C 20.1°F-6.6°C 33% Calm Calm -- 30.15 in1021.0 mb - 0.00 in0.0 mm 0.00 in0.0 mm
11:00 PM 47.2°F8.4°C 20.2°F-6.6°C 34% Calm Calm -- 30.15 in1021.0 mb - 0.00 in0.0 mm 0.00 in0.0 mm
11:10 PM 47.3°F8.5°C 20.3°F-6.5°C 34% Calm Calm -- 30.16 in1021.3 mb - 0.00 in0.0 mm 0.00 in0.0 mm
11:20 PM 48.0°F8.9°C 20.9°F-6.2°C 34% 2.3 mph NW3.7 kmh NW 12.7 mph20.4 kmh 30.15 in1021.0 mb - 0.00 in0.0 mm 0.00 in0.0 mm
11:40 PM 47.7°F8.7°C 19.9°F-6.7°C 33% Calm Calm -- 30.16 in1021.3 mb - 0.00 in0.0 mm 0.00 in0.0 mm
11:50 PM 47.0°F8.3°C 20.0°F-6.7°C 34% Calm Calm 2.3 mph3.7 kmh 30.15 in1021.0 mb - 0.00 in0.0 mm 0.00 in0.0 mm